This is the latest recevied weather packets stored in our database for station/object XE2KK-10. If no packets are shown the sender has not sent any weather packets the latest 10 day(s).
| Time | Temp. | Humidity | Pressure | Rain* | Wind** | Luminosity | Snow |
|---|---|---|---|---|---|---|---|
| 1778009052 | 36.11° C | 28% | 1006.7 hPa | 0 mm | - | 770 W/m² | - |
| 1778008753 | 36.11° C | 30% | 1006.9 hPa | 0 mm | - | 698 W/m² | - |
| 1778008453 | 36.11° C | 30% | 1007.1 hPa | 0 mm | - | 773 W/m² | - |
| 1778008153 | 35.56° C | 30% | 1007.2 hPa | 0 mm | - | 729 W/m² | - |
| 1778007852 | 35.56° C | 31% | 1007.3 hPa | 0 mm | - | 732 W/m² | - |
| 1778007552 | 35.56° C | 31% | 1007.3 hPa | 0 mm | - | 764 W/m² | - |
| 1778007252 | 35.56° C | 31% | 1007.5 hPa | 0 mm | - | 782 W/m² | - |
| 1778006953 | 34.44° C | 33% | 1007.6 hPa | 0 mm | - | 783 W/m² | - |
| 1778006653 | 35° C | 33% | 1007.6 hPa | 0 mm | - | 776 W/m² | - |
| 1778006353 | 35.56° C | 32% | 1007.8 hPa | 0 mm | - | 822 W/m² | - |
| 1778006052 | 34.44° C | 34% | 1007.8 hPa | 0 mm | - | 816 W/m² | - |
| 1778005752 | 34.44° C | 35% | 1007.9 hPa | 0 mm | - | 841 W/m² | - |
| 1778005452 | 34.44° C | 35% | 1008.1 hPa | 0 mm | - | 733 W/m² | - |
| 1778005153 | 33.33° C | 36% | 1008 hPa | 0 mm | - | 819 W/m² | - |
| 1778004853 | 32.78° C | 37% | 1008.1 hPa | 0 mm | - | 819 W/m² | - |
| 1778004553 | 33.33° C | 37% | 1008.2 hPa | 0 mm | - | 799 W/m² | - |
| 1778004252 | 33.89° C | 37% | 1008.2 hPa | 0 mm | - | 803 W/m² | - |
| 1778003952 | 33.89° C | 35% | 1008.1 hPa | 0 mm | - | 801 W/m² | - |
| 1778003652 | 33.89° C | 37% | 1008.1 hPa | 0 mm | - | 775 W/m² | - |
| 1778003352 | 33.33° C | 38% | 1008.4 hPa | 0 mm | - | 792 W/m² | - |
| 1778003052 | 33.33° C | 39% | 1008.4 hPa | 0 mm | - | 755 W/m² | - |
| 1778002753 | 32.22° C | 43% | 1008.5 hPa | 0 mm | - | 746 W/m² | - |
| 1778002453 | 32.22° C | 42% | 1008.6 hPa | 0 mm | - | 737 W/m² | - |
| 1778002153 | 31.11° C | 44% | 1008.8 hPa | 0 mm | - | 734 W/m² | - |
| 1778001852 | 32.22° C | 41% | 1008.7 hPa | 0 mm | - | 748 W/m² | - |
* Rain latest hour (hover to see other rain measurements)
** Current wind speed in m/s (hover to see current wind gust speed)